Time;durP1;ratioP1;P1;durP2;ratioP2;P2;SDS_P1;SDS_P2;PMS_P1;PMS_P2;Temp;Humidity;BMP_temperature;BMP_pressure;BME280_temperature;BME280_humidity;BME280_pressure;Samples;Min_cycle;Max_cycle;Signal;HPM_P1;HPM_P2
2021/03/20 00:00:28;;;;;;;5.20;3.25;;;0.30;1.00;;;;;;5137982;27;20615;-63
2021/03/20 00:02:54;;;;;;;5.32;3.00;;;0.30;1.00;;;;;;5138328;27;20204;-63
2021/03/20 00:05:21;;;;;;;7.05;2.72;;;0.40;1.00;;;;;;5138076;27;20171;-65
2021/03/20 00:07:47;;;;;;;6.38;3.67;;;0.50;1.00;;;;;;5137910;27;20198;-64
2021/03/20 00:10:16;;;;;;;5.97;3.60;;;0.40;1.00;;;;;;5137070;27;20190;-64
2021/03/20 00:12:43;;;;;;;4.60;3.20;;;0.50;1.00;;;;;;5137837;27;20671;-64
2021/03/20 00:15:11;;;;;;;5.70;3.75;;;0.50;1.00;;;;;;5137832;27;20620;-64
2021/03/20 00:17:37;;;;;;;5.60;3.55;;;0.50;1.00;;;;;;5137860;27;20258;-64
2021/03/20 00:20:13;;;;;;;4.40;2.90;;;0.60;1.00;;;;;;5138385;27;20262;-64
2021/03/20 00:22:38;;;;;;;6.43;2.90;;;0.80;1.00;;;;;;5139512;27;20177;-64
2021/03/20 00:25:06;;;;;;;6.40;3.10;;;0.90;1.00;;;;;;5137794;27;20171;-64
2021/03/20 00:27:33;;;;;;;4.72;2.92;;;1.00;1.00;;;;;;5138143;27;20466;-65
2021/03/20 00:29:59;;;;;;;3.72;2.95;;;1.10;1.00;;;;;;5138223;27;20182;-65
2021/03/20 00:32:25;;;;;;;6.20;2.70;;;1.10;1.00;;;;;;5138300;27;20190;-64
2021/03/20 00:34:50;;;;;;;5.63;3.03;;;0.90;99.90;;;;;;5138351;27;20426;-64
2021/03/20 00:37:16;;;;;;;3.27;2.13;;;0.90;99.90;;;;;;5137976;27;20174;-64
2021/03/20 00:39:43;;;;;;;2.90;1.97;;;0.70;99.90;;;;;;5137989;27;20580;-64
2021/03/20 00:42:09;;;;;;;9.90;2.22;;;0.80;99.90;;;;;;5137015;27;20239;-64
2021/03/20 00:44:35;;;;;;;2.80;2.03;;;0.80;99.90;;;;;;5137526;27;20178;-64
2021/03/20 00:47:01;;;;;;;6.00;2.90;;;0.90;99.90;;;;;;5137875;27;20474;-63
2021/03/20 00:49:27;;;;;;;5.70;2.70;;;0.80;99.90;;;;;;5137372;27;20572;-62
2021/03/20 00:51:52;;;;;;;3.87;2.80;;;0.90;99.90;;;;;;5137671;27;20170;-63
2021/03/20 00:54:18;;;;;;;4.53;1.90;;;0.90;99.90;;;;;;5138141;27;20178;-65
2021/03/20 00:56:44;;;;;;;3.53;2.10;;;0.90;99.90;;;;;;5136838;27;20175;-63
2021/03/20 00:59:10;;;;;;;3.17;2.10;;;1.00;99.90;;;;;;5137252;27;20206;-63
2021/03/20 01:01:35;;;;;;;161.77;67.57;;;0.90;99.90;;;;;;5135861;27;20428;-63
2021/03/20 01:04:01;;;;;;;60.90;26.83;;;0.90;99.90;;;;;;5137848;27;20171;-64
2021/03/20 01:06:27;;;;;;;7.27;3.03;;;0.70;1.00;;;;;;5138304;27;20255;-64
2021/03/20 01:08:55;;;;;;;4.35;2.30;;;0.50;1.00;;;;;;5137589;27;20425;-64
2021/03/20 01:11:21;;;;;;;5.78;3.55;;;0.40;1.00;;;;;;5138667;27;20520;-64
2021/03/20 01:13:47;;;;;;;5.65;2.63;;;0.20;1.00;;;;;;5138282;27;20211;-64
2021/03/20 01:16:13;;;;;;;6.10;2.33;;;0.10;1.00;;;;;;5138084;27;20186;-64
2021/03/20 01:18:41;;;;;;;3.15;2.13;;;0.20;1.00;;;;;;5138489;27;20539;-64
2021/03/20 01:21:07;;;;;;;4.95;2.38;;;0.20;1.00;;;;;;5138527;27;20192;-65
2021/03/20 01:23:33;;;;;;;4.18;2.35;;;0.20;1.00;;;;;;5137613;27;20196;-65
2021/03/20 01:25:59;;;;;;;3.00;1.97;;;-0.10;1.00;;;;;;5138476;27;20178;-64
2021/03/20 01:28:32;;;;;;;4.63;2.10;;;-0.30;1.00;;;;;;5138202;27;20420;-64
2021/03/20 01:30:59;;;;;;;3.45;2.78;;;-0.50;1.00;;;;;;5138603;27;20269;-65
2021/03/20 01:33:25;;;;;;;2.55;1.83;;;-0.60;1.00;;;;;;5137817;27;20182;-65
2021/03/20 01:35:52;;;;;;;1.50;1.15;;;-0.60;12.10;;;;;;5138251;27;20261;-64
2021/03/20 01:38:17;;;;;;;2.75;1.50;;;-0.60;1.00;;;;;;5137976;27;20202;-65
2021/03/20 01:40:50;;;;;;;2.13;1.80;;;-0.40;1.00;;;;;;5137855;27;20508;-65
2021/03/20 01:43:18;;;;;;;2.08;1.42;;;-0.30;1.00;;;;;;5137657;27;20175;-64
2021/03/20 01:45:44;;;;;;;3.45;2.00;;;-0.40;1.00;;;;;;5138683;27;20260;-62
2021/03/20 01:48:35;;;;;;;2.90;1.50;;;-0.40;1.00;;;;;;5138902;27;20225;-64
2021/03/20 01:51:04;;;;;;;2.05;1.40;;;-0.40;1.00;;;;;;5138207;27;20201;-64
2021/03/20 01:53:37;;;;;;;2.45;1.30;;;-0.40;1.00;;;;;;5137520;27;20257;-63
2021/03/20 01:56:07;;;;;;;4.80;1.50;;;-0.10;1.00;;;;;;5137385;27;20323;-63
2021/03/20 01:58:34;;;;;;;3.72;1.58;;;0.10;1.00;;;;;;5137522;27;20270;-69
2021/03/20 02:01:07;;;;;;;2.50;1.90;;;0.10;1.00;;;;;;5137149;27;20170;-64
2021/03/20 02:03:33;;;;;;;1.65;1.42;;;0.10;1.00;;;;;;5137318;27;20171;-64
2021/03/20 02:06:01;;;;;;;2.88;1.85;;;0.30;1.00;;;;;;5137499;27;20295;-63
2021/03/20 02:08:27;;;;;;;3.40;1.85;;;0.60;1.00;;;;;;5137159;27;20202;-62
2021/03/20 02:10:59;;;;;;;5.22;1.55;;;0.80;1.00;;;;;;5137301;27;20221;-63
2021/03/20 02:13:39;;;;;;;5.53;1.60;;;0.80;99.90;;;;;;5137030;27;20175;-63
2021/03/20 02:16:31;;;;;;;5.35;1.80;;;0.90;99.90;;;;;;5137591;27;20174;-63
2021/03/20 02:19:21;;;;;;;2.17;1.25;;;0.90;99.90;;;;;;5137427;27;20198;-64
2021/03/20 02:21:56;;;;;;;1.30;1.20;;;0.80;99.90;;;;;;5137223;27;20170;-64
2021/03/20 02:24:27;;;;;;;2.92;1.50;;;0.80;99.90;;;;;;5136963;27;20174;-63
2021/03/20 02:27:27;;;;;;;2.90;1.15;;;0.90;99.90;;;;;;5137403;27;20500;-63
2021/03/20 02:30:14;;;;;;;1.38;1.15;;;0.80;99.90;;;;;;5137249;27;20515;-63
2021/03/20 02:33:10;;;;;;;1.35;1.17;;;0.80;99.90;;;;;;5137207;27;20542;-64
2021/03/20 02:36:00;;;;;;;3.60;0.85;;;1.00;99.90;;;;;;5137168;27;20186;-63
2021/03/20 02:38:44;;;;;;;1.02;0.88;;;1.10;99.90;;;;;;5136890;27;20202;-63
2021/03/20 02:41:31;;;;;;;3.15;1.35;;;1.20;99.90;;;;;;5136695;28;20175;-63
2021/03/20 02:44:07;;;;;;;4.20;1.20;;;1.10;99.90;;;;;;5137492;27;20174;-63
2021/03/20 02:46:42;;;;;;;2.95;1.08;;;0.90;99.90;;;;;;5137557;27;20206;-63
2021/03/20 02:49:23;;;;;;;2.35;0.90;;;1.00;99.90;;;;;;5137177;27;20288;-63
2021/03/20 02:52:17;;;;;;;1.30;1.15;;;1.10;99.90;;;;;;5136932;28;20631;-63
2021/03/20 02:55:01;;;;;;;2.40;1.10;;;1.10;99.90;;;;;;5136607;27;20243;-63
2021/03/20 02:57:52;;;;;;;2.80;1.13;;;1.30;99.90;;;;;;5136971;28;20247;-63
2021/03/20 03:00:30;;;;;;;2.65;1.40;;;1.40;99.90;;;;;;5129652;28;20226;-63
2021/03/20 03:02:57;;;;;;;3.45;1.90;;;1.40;99.90;;;;;;5136798;27;20218;-63
2021/03/20 03:05:29;;;;;;;2.50;1.48;;;1.60;99.90;;;;;;5135887;27;20194;-63
2021/03/20 03:08:16;;;;;;;2.67;1.35;;;1.50;99.90;;;;;;5136365;27;20200;-63
2021/03/20 03:10:54;;;;;;;1.77;1.10;;;1.70;99.90;;;;;;5136393;27;20273;-65
2021/03/20 03:13:25;;;;;;;2.17;1.48;;;1.70;99.90;;;;;;5135903;27;20165;-64
2021/03/20 03:15:58;;;;;;;1.35;1.25;;;1.60;99.90;;;;;;5135851;27;20178;-64
2021/03/20 03:18:29;;;;;;;2.95;1.10;;;1.50;99.90;;;;;;5137083;27;20550;-64
2021/03/20 03:20:58;;;;;;;3.42;1.00;;;1.30;99.90;;;;;;5140505;27;20242;-64
2021/03/20 03:23:26;;;;;;;2.05;0.77;;;1.30;99.90;;;;;;5139902;27;20244;-64
2021/03/20 03:26:21;;;;;;;0.75;0.65;;;1.40;99.90;;;;;;5140635;27;20174;-64
2021/03/20 03:28:50;;;;;;;1.38;1.02;;;1.40;98.10;;;;;;5137276;27;20523;-64
2021/03/20 03:31:41;;;;;;;1.27;1.00;;;1.40;56.80;;;;;;5140845;27;20264;-62
2021/03/20 03:34:16;;;;;;;1.83;0.80;;;1.40;25.00;;;;;;5140182;27;20379;-63
2021/03/20 03:36:52;;;;;;;0.65;0.52;;;1.20;54.60;;;;;;5140265;27;20280;-63
2021/03/20 03:39:32;;;;;;;4.75;1.05;;;1.40;45.60;;;;;;5139952;27;20707;-63
2021/03/20 03:41:58;;;;;;;2.08;0.80;;;1.30;44.20;;;;;;5140047;27;20182;-63
2021/03/20 03:44:24;;;;;;;0.97;0.90;;;1.20;50.70;;;;;;5140121;27;20167;-63
2021/03/20 03:46:50;;;;;;;1.83;0.83;;;1.30;23.00;;;;;;5140271;27;20753;-63
2021/03/20 03:49:22;;;;;;;1.73;1.00;;;1.40;15.10;;;;;;5140147;27;20235;-63
2021/03/20 03:51:48;;;;;;;0.70;0.57;;;1.30;13.60;;;;;;5138616;27;20236;-63
2021/03/20 03:54:14;;;;;;;3.50;1.00;;;1.40;11.40;;;;;;5139559;27;20603;-63
2021/03/20 03:56:54;;;;;;;2.50;0.80;;;1.40;1.00;;;;;;5139855;27;20446;-63
2021/03/20 03:59:58;;;;;;;3.25;0.73;;;1.40;1.00;;;;;;5139587;27;20452;-63
2021/03/20 04:02:42;;;;;;;2.67;0.65;;;1.40;1.00;;;;;;5110068;27;20205;-63
2021/03/20 04:05:16;;;;;;;2.95;0.90;;;1.40;6.90;;;;;;5139841;27;20246;-63
2021/03/20 04:07:56;;;;;;;0.80;0.68;;;1.50;1.00;;;;;;5139252;27;20512;-65
2021/03/20 04:10:42;;;;;;;2.25;0.82;;;1.80;1.00;;;;;;5138594;27;20198;-63
2021/03/20 04:13:29;;;;;;;3.70;1.10;;;1.90;1.00;;;;;;5139444;27;20210;-63
2021/03/20 04:16:09;;;;;;;1.30;0.90;;;1.60;1.00;;;;;;5139363;27;20185;-63
2021/03/20 04:19:03;;;;;;;1.80;0.60;;;1.50;1.00;;;;;;5139907;27;20243;-63
2021/03/20 04:21:29;;;;;;;5.18;1.20;;;1.50;1.00;;;;;;5139033;27;20347;-63
2021/03/20 04:24:18;;;;;;;0.93;0.90;;;1.40;1.00;;;;;;5138770;27;20215;-64
2021/03/20 04:26:50;;;;;;;3.47;0.70;;;1.30;1.00;;;;;;5139157;27;20235;-63
2021/03/20 04:29:33;;;;;;;1.60;0.63;;;1.20;9.00;;;;;;5139503;27;20267;-64
2021/03/20 04:32:10;;;;;;;8.27;0.85;;;1.20;2.40;;;;;;5138733;27;20193;-64
2021/03/20 04:34:43;;;;;;;1.20;0.90;;;1.10;1.00;;;;;;5139625;27;20178;-64
2021/03/20 04:37:22;;;;;;;1.67;0.80;;;0.90;18.60;;;;;;5138367;27;20208;-64
2021/03/20 04:39:52;;;;;;;3.55;1.08;;;1.10;24.40;;;;;;5139135;27;20213;-64
2021/03/20 04:42:37;;;;;;;1.27;0.85;;;1.10;13.50;;;;;;5138526;27;20561;-64
2021/03/20 04:45:15;;;;;;;2.47;0.63;;;1.30;4.20;;;;;;5139008;27;20167;-68
2021/03/20 04:47:41;;;;;;;4.53;1.13;;;1.40;1.00;;;;;;5139248;27;20586;-65
2021/03/20 04:50:23;;;;;;;1.40;1.17;;;1.30;1.00;;;;;;5138790;27;20193;-64
2021/03/20 04:52:52;;;;;;;3.42;1.20;;;1.20;1.00;;;;;;5138403;27;20185;-64
2021/03/20 04:55:19;;;;;;;2.15;0.88;;;1.20;1.00;;;;;;5138480;27;20171;-64
2021/03/20 04:57:48;;;;;;;3.17;1.90;;;1.10;1.00;;;;;;5138765;27;20178;-65
2021/03/20 05:00:42;;;;;;;3.10;1.02;;;1.00;9.40;;;;;;5139116;27;20190;-65
2021/03/20 05:03:23;;;;;;;4.32;1.17;;;1.10;24.60;;;;;;5138394;27;20611;-64
2021/03/20 05:05:50;;;;;;;4.80;1.63;;;1.20;10.90;;;;;;5138677;27;20501;-65
2021/03/20 05:08:39;;;;;;;4.03;0.82;;;1.00;16.00;;;;;;5138297;27;20194;-70
2021/03/20 05:11:12;;;;;;;1.73;1.23;;;1.00;38.50;;;;;;5138577;27;20171;-64
2021/03/20 05:13:50;;;;;;;0.95;0.60;;;1.20;42.00;;;;;;5137891;27;20159;-65
2021/03/20 05:16:16;;;;;;;0.93;0.50;;;1.30;27.90;;;;;;5138275;27;20737;-64
2021/03/20 05:18:47;;;;;;;3.37;1.30;;;1.20;27.20;;;;;;5138099;27;20238;-65
2021/03/20 05:21:37;;;;;;;0.90;0.75;;;1.30;33.60;;;;;;5138812;27;20194;-65
2021/03/20 05:24:04;;;;;;;2.33;1.15;;;1.30;22.80;;;;;;5130757;27;20570;-70
2021/03/20 05:26:31;;;;;;;1.63;1.00;;;1.30;11.10;;;;;;5137995;27;20497;-64
2021/03/20 05:28:57;;;;;;;0.93;0.73;;;1.30;14.20;;;;;;5137566;27;20243;-65
2021/03/20 05:31:23;;;;;;;2.40;0.90;;;1.20;10.40;;;;;;5137982;27;20595;-64
2021/03/20 05:33:50;;;;;;;5.30;1.03;;;1.20;34.70;;;;;;5138132;27;20193;-67
2021/03/20 05:36:16;;;;;;;1.30;0.98;;;1.00;51.40;;;;;;5137693;27;20417;-65
2021/03/20 05:38:43;;;;;;;1.95;1.10;;;0.90;93.80;;;;;;5138915;27;20222;-64
2021/03/20 05:41:45;;;;;;;1.85;1.05;;;0.80;99.90;;;;;;5137330;27;20174;-62
2021/03/20 05:44:30;;;;;;;1.20;0.80;;;0.70;99.90;;;;;;5139360;27;20616;-63
2021/03/20 05:47:37;;;;;;;3.30;0.95;;;0.70;99.90;;;;;;5138294;27;20179;-64
2021/03/20 05:50:21;;;;;;;1.35;0.82;;;0.90;99.90;;;;;;5137548;27;20179;-68
2021/03/20 05:53:08;;;;;;;1.90;0.90;;;1.00;99.90;;;;;;5137644;27;20260;-65
2021/03/20 05:55:39;;;;;;;2.03;1.15;;;1.00;99.90;;;;;;5137722;27;20197;-65
2021/03/20 05:58:35;;;;;;;1.98;0.75;;;1.10;99.90;;;;;;5137573;27;20199;-64
2021/03/20 06:01:14;;;;;;;1.77;0.93;;;1.10;99.90;;;;;;5137950;27;20193;-65
2021/03/20 06:04:07;;;;;;;1.85;0.90;;;1.20;99.90;;;;;;5136751;27;20181;-64
2021/03/20 06:06:51;;;;;;;1.45;1.10;;;1.30;87.60;;;;;;5137494;27;20672;-64
2021/03/20 06:09:50;;;;;;;2.85;0.75;;;1.40;59.60;;;;;;5136877;27;20190;-64
2021/03/20 06:12:34;;;;;;;1.00;0.90;;;1.40;74.10;;;;;;5136056;27;20262;-65
2021/03/20 06:15:13;;;;;;;3.00;1.02;;;1.40;44.10;;;;;;5137342;27;20189;-65
2021/03/20 06:18:05;;;;;;;3.10;0.93;;;1.70;37.00;;;;;;5136688;27;20174;-65
2021/03/20 06:20:52;;;;;;;1.50;1.08;;;2.00;1.00;;;;;;5135974;27;20175;-65
2021/03/20 06:23:36;;;;;;;1.00;0.70;;;2.10;1.00;;;;;;5136528;27;20188;-64
2021/03/20 06:26:12;;;;;;;1.25;1.13;;;1.90;1.00;;;;;;5136349;27;20590;-64
2021/03/20 06:28:56;;;;;;;0.55;0.50;;;1.80;1.00;;;;;;5136745;27;20204;-63
2021/03/20 06:31:27;;;;;;;7.78;1.20;;;1.80;1.00;;;;;;5137724;27;20181;-64
2021/03/20 06:34:26;;;;;;;2.08;1.10;;;1.70;1.00;;;;;;5137376;27;20234;-63
2021/03/20 06:37:18;;;;;;;2.05;1.13;;;1.90;1.00;;;;;;5136818;27;20181;-69
2021/03/20 06:40:03;;;;;;;2.65;0.90;;;2.10;1.00;;;;;;5137076;27;20198;-64
2021/03/20 06:42:37;;;;;;;2.45;1.10;;;2.00;1.00;;;;;;5135909;28;20515;-65
2021/03/20 06:45:12;;;;;;;3.10;0.88;;;2.10;1.00;;;;;;5136927;27;20178;-65
2021/03/20 06:47:40;;;;;;;2.05;0.70;;;1.80;1.00;;;;;;5137360;28;20230;-63
2021/03/20 06:50:20;;;;;;;4.25;1.17;;;1.90;1.00;;;;;;5135730;28;20204;-65
2021/03/20 06:52:56;;;;;;;1.20;0.75;;;1.90;1.00;;;;;;5136572;27;20586;-65
2021/03/20 06:55:27;;;;;;;2.05;0.93;;;1.80;1.00;;;;;;5140273;27;20262;-65
2021/03/20 06:57:53;;;;;;;2.95;0.98;;;1.90;1.00;;;;;;5141148;27;20179;-64
2021/03/20 07:00:27;;;;;;;1.67;1.15;;;2.00;1.00;;;;;;5140967;27;20183;-64
2021/03/20 07:03:18;;;;;;;1.52;0.95;;;2.10;1.00;;;;;;5141054;27;20195;-65
2021/03/20 07:05:50;;;;;;;2.40;0.90;;;2.00;1.00;;;;;;5140688;27;20167;-65
2021/03/20 07:08:42;;;;;;;4.03;2.17;;;2.20;1.00;;;;;;5140541;27;20190;-64
2021/03/20 07:11:40;;;;;;;2.67;0.93;;;2.50;1.00;;;;;;5140571;27;20185;-64
2021/03/20 07:14:09;;;;;;;4.40;0.70;;;2.50;1.00;;;;;;5140833;27;20230;-63
2021/03/20 07:16:56;;;;;;;3.70;1.20;;;2.10;1.00;;;;;;5141117;27;20595;-63
2021/03/20 07:19:22;;;;;;;0.88;0.85;;;2.10;1.00;;;;;;5140811;27;20229;-65
2021/03/20 07:21:56;;;;;;;3.08;1.25;;;2.10;1.00;;;;;;5140637;27;20170;-65
2021/03/20 07:24:42;;;;;;;1.95;1.00;;;2.20;1.00;;;;;;5140279;27;20166;-65
2021/03/20 07:27:14;;;;;;;2.22;1.42;;;2.50;1.00;;;;;;5140683;27;20174;-64
2021/03/20 07:29:50;;;;;;;1.25;1.10;;;2.50;1.00;;;;;;5140324;27;20210;-64
2021/03/20 07:32:20;;;;;;;0.93;0.80;;;2.30;1.00;;;;;;5140112;27;20178;-66
2021/03/20 07:34:47;;;;;;;1.45;1.02;;;2.40;1.00;;;;;;5140522;27;20646;-64
2021/03/20 07:37:23;;;;;;;1.60;1.13;;;2.30;1.00;;;;;;5140569;27;20224;-63
2021/03/20 07:39:58;;;;;;;1.88;1.20;;;2.50;1.00;;;;;;5139973;27;20267;-64
2021/03/20 07:42:32;;;;;;;1.05;0.90;;;2.50;1.00;;;;;;5140281;27;20170;-65
2021/03/20 07:45:04;;;;;;;1.25;1.00;;;2.80;1.00;;;;;;5139835;27;20219;-63
2021/03/20 07:47:41;;;;;;;2.05;1.40;;;2.90;1.00;;;;;;5140554;27;20630;-64
2021/03/20 07:50:19;;;;;;;2.90;0.75;;;2.90;1.00;;;;;;5140410;27;20197;-65
2021/03/20 07:53:04;;;;;;;4.88;1.90;;;2.80;1.00;;;;;;5139806;27;20186;-64
2021/03/20 07:55:35;;;;;;;7.03;1.80;;;3.10;1.00;;;;;;5140193;27;20174;-65
2021/03/20 07:58:03;;;;;;;2.33;1.00;;;3.40;1.00;;;;;;5139685;27;20194;-65
2021/03/20 08:00:35;;;;;;;2.25;1.30;;;3.40;1.00;;;;;;5140084;27;20474;-64
2021/03/20 08:03:21;;;;;;;1.50;1.05;;;3.20;1.00;;;;;;5139840;27;20162;-65
2021/03/20 08:05:46;;;;;;;2.10;1.30;;;3.10;1.00;;;;;;5140035;27;20197;-64
2021/03/20 08:08:14;;;;;;;1.40;1.10;;;3.30;1.00;;;;;;5139549;27;20198;-65
2021/03/20 08:10:43;;;;;;;0.60;0.60;;;3.40;1.00;;;;;;5139598;27;20259;-65
2021/03/20 08:13:15;;;;;;;2.13;0.90;;;3.20;1.00;;;;;;5139713;27;20549;-64
2021/03/20 08:15:46;;;;;;;1.42;1.00;;;3.30;1.00;;;;;;5139433;27;20210;-63
2021/03/20 08:18:23;;;;;;;3.58;1.17;;;3.80;1.00;;;;;;5139611;27;20250;-63
2021/03/20 08:21:13;;;;;;;2.08;1.15;;;4.00;1.00;;;;;;5139612;27;20167;-69
2021/03/20 08:24:05;;;;;;;2.15;1.00;;;3.70;1.00;;;;;;5138671;27;20182;-67
2021/03/20 08:27:13;;;;;;;2.58;1.10;;;3.70;1.00;;;;;;5138411;27;20232;-63
2021/03/20 08:29:45;;;;;;;1.98;0.98;;;3.70;1.00;;;;;;5129446;27;20178;-65
2021/03/20 08:32:34;;;;;;;1.35;1.00;;;4.10;1.00;;;;;;5121936;27;20320;-65
2021/03/20 08:35:25;;;;;;;1.73;0.98;;;4.10;1.00;;;;;;5138500;27;20180;-66
2021/03/20 08:38:10;;;;;;;2.10;1.40;;;3.90;1.00;;;;;;5123915;27;20176;-64
2021/03/20 08:40:46;;;;;;;4.07;1.50;;;3.80;1.00;;;;;;5107267;28;20187;-68
2021/03/20 08:43:40;;;;;;;1.80;1.30;;;3.90;1.00;;;;;;5117882;28;20588;-68
2021/03/20 08:46:55;;;;;;;2.13;1.30;;;4.00;1.00;;;;;;5076127;27;20192;-67
2021/03/20 08:49:41;;;;;;;3.83;1.70;;;4.50;1.00;;;;;;5138663;27;20170;-64
2021/03/20 08:52:57;;;;;;;3.53;1.45;;;4.50;1.00;;;;;;5138722;27;20265;-65
2021/03/20 08:56:00;;;;;;;2.75;1.48;;;4.60;1.00;;;;;;5094989;28;20180;-64
2021/03/20 08:58:38;;;;;;;3.05;1.63;;;4.90;1.00;;;;;;5138039;27;20208;-64
2021/03/20 09:01:13;;;;;;;2.95;1.95;;;5.00;1.00;;;;;;5124622;27;20508;-67
2021/03/20 09:03:46;;;;;;;2.67;1.30;;;5.30;1.00;;;;;;5133764;27;20170;-66
2021/03/20 09:06:32;;;;;;;2.55;1.48;;;4.70;1.00;;;;;;5138397;27;20594;-66
2021/03/20 09:09:13;;;;;;;1.48;1.30;;;4.60;1.00;;;;;;5138249;27;20186;-67
2021/03/20 09:11:53;;;;;;;2.92;1.77;;;4.50;1.00;;;;;;5137459;27;20179;-66
2021/03/20 09:14:50;;;;;;;4.25;1.98;;;4.50;1.00;;;;;;5137861;27;20267;-65
2021/03/20 09:17:31;;;;;;;1.77;1.05;;;4.60;1.00;;;;;;5135373;27;20190;-65
2021/03/20 09:20:21;;;;;;;0.68;0.60;;;4.70;1.00;;;;;;5137871;27;20198;-64
2021/03/20 09:22:48;;;;;;;2.25;1.75;;;4.80;1.00;;;;;;5138104;27;20194;-66
2021/03/20 09:25:31;;;;;;;3.20;1.33;;;4.80;1.00;;;;;;5137495;27;20280;-64
2021/03/20 09:28:11;;;;;;;4.32;1.40;;;4.70;1.00;;;;;;5137793;27;20179;-63
2021/03/20 09:30:57;;;;;;;2.35;1.77;;;4.90;1.00;;;;;;5134833;27;20218;-64
2021/03/20 09:33:25;;;;;;;2.97;1.33;;;4.50;1.00;;;;;;5117613;28;20198;-64
2021/03/20 09:35:54;;;;;;;3.72;1.20;;;4.40;1.00;;;;;;5117837;27;20596;-62
2021/03/20 09:38:35;;;;;;;1.70;1.35;;;4.40;1.00;;;;;;5137747;27;20206;-63
2021/03/20 09:41:02;;;;;;;3.72;2.08;;;4.40;1.00;;;;;;5138356;27;20166;-65
2021/03/20 09:43:34;;;;;;;2.08;1.10;;;4.50;1.00;;;;;;5137057;27;20232;-67
2021/03/20 09:46:37;;;;;;;2.63;0.80;;;4.80;1.00;;;;;;5137529;27;20512;-65
2021/03/20 09:49:23;;;;;;;2.20;1.20;;;4.70;1.00;;;;;;5137826;27;20185;-65
2021/03/20 09:51:57;;;;;;;6.43;1.92;;;4.60;1.00;;;;;;5130779;27;20214;-65
2021/03/20 09:54:30;;;;;;;1.98;1.02;;;4.70;1.00;;;;;;5137489;27;20182;-64
2021/03/20 09:59:42;;;;;;;3.20;1.55;;;5.00;1.00;;;;;;5137637;27;20207;-70
2021/03/20 10:02:10;;;;;;;1.90;1.03;;;5.30;1.00;;;;;;5118108;27;20245;-68
2021/03/20 10:04:43;;;;;;;3.15;1.15;;;5.60;1.00;;;;;;5114571;28;20202;-74
2021/03/20 10:07:21;;;;;;;17.05;7.70;;;5.50;1.00;;;;;;5115706;28;20192;-67
2021/03/20 10:09:59;;;;;;;1.58;1.13;;;5.50;1.00;;;;;;5115051;28;20635;-66
2021/03/20 10:12:47;;;;;;;1.40;1.30;;;5.30;1.00;;;;;;5115984;28;20612;-66
2021/03/20 10:15:20;;;;;;;3.05;1.48;;;5.30;1.00;;;;;;5107575;28;20203;-65
2021/03/20 10:18:17;;;;;;;1.10;0.90;;;5.30;1.00;;;;;;5115615;28;20261;-66
2021/03/20 10:20:45;;;;;;;1.80;1.50;;;5.50;1.00;;;;;;5116409;28;20604;-66
2021/03/20 10:23:43;;;;;;;5.18;1.95;;;5.40;1.00;;;;;;5114484;28;20199;-66
2021/03/20 10:26:21;;;;;;;1.70;1.05;;;5.60;1.00;;;;;;5115946;28;20509;-68
2021/03/20 10:29:12;;;;;;;3.15;1.73;;;5.60;1.00;;;;;;5114879;28;20182;-67
2021/03/20 10:31:49;;;;;;;3.45;2.60;;;5.50;1.00;;;;;;5115271;28;20194;-66
2021/03/20 10:34:18;;;;;;;1.50;1.23;;;5.60;1.00;;;;;;5114489;28;20306;-71
2021/03/20 10:36:47;;;;;;;3.38;1.73;;;5.50;1.00;;;;;;5124110;28;20203;-67
2021/03/20 10:39:34;;;;;;;2.08;1.20;;;5.50;1.00;;;;;;5134503;27;20203;-65
2021/03/20 10:42:05;;;;;;;3.42;1.90;;;5.70;1.00;;;;;;5134072;27;20183;-66
2021/03/20 10:44:40;;;;;;;4.47;1.80;;;5.80;1.00;;;;;;5133483;28;20182;-67
2021/03/20 10:47:19;;;;;;;2.33;1.67;;;5.40;1.00;;;;;;5135313;27;20587;-68
2021/03/20 10:50:27;;;;;;;3.75;2.20;;;5.80;1.00;;;;;;5134768;28;20186;-67
2021/03/20 10:52:58;;;;;;;2.58;2.20;;;6.20;1.00;;;;;;5135709;27;20170;-65
2021/03/20 10:55:39;;;;;;;5.03;1.98;;;6.70;1.00;;;;;;5134593;28;20193;-65
2021/03/20 10:58:09;;;;;;;3.60;3.17;;;7.30;1.00;;;;;;5134777;27;20167;-66
2021/03/20 11:00:44;;;;;;;3.00;2.50;;;7.40;1.00;;;;;;5130353;28;20233;-69
2021/03/20 11:03:34;;;;;;;6.30;2.70;;;7.60;1.00;;;;;;5126009;28;20482;-66
2021/03/20 11:06:12;;;;;;;3.42;2.65;;;8.00;1.00;;;;;;5115600;28;20179;-66
2021/03/20 11:08:38;;;;;;;2.40;1.65;;;7.60;1.00;;;;;;5114415;28;20587;-65
2021/03/20 11:11:31;;;;;;;3.85;2.15;;;7.60;1.00;;;;;;5114412;28;20182;-65
2021/03/20 11:14:06;;;;;;;3.38;2.85;;;7.00;1.00;;;;;;5107759;28;20245;-65
2021/03/20 11:16:32;;;;;;;2.95;2.22;;;6.50;1.00;;;;;;5113855;28;20273;-65
2021/03/20 11:19:14;;;;;;;4.50;2.22;;;6.40;1.00;;;;;;5133490;28;20225;-65
2021/03/20 11:21:43;;;;;;;4.30;3.15;;;6.50;1.00;;;;;;5133847;28;20183;-65
2021/03/20 11:24:23;;;;;;;3.95;2.22;;;6.40;1.00;;;;;;5134915;27;20169;-66
2021/03/20 11:26:52;;;;;;;2.78;2.03;;;6.50;1.00;;;;;;5133635;28;20171;-67
2021/03/20 11:29:22;;;;;;;2.80;2.13;;;6.90;1.00;;;;;;5133239;28;20199;-66
2021/03/20 11:31:53;;;;;;;2.83;2.47;;;7.50;1.00;;;;;;5133325;28;20651;-66
2021/03/20 11:34:35;;;;;;;2.92;2.40;;;7.40;1.00;;;;;;5129724;27;20238;-66
2021/03/20 11:37:02;;;;;;;2.75;2.40;;;6.90;1.00;;;;;;5113988;28;20233;-64
2021/03/20 11:39:28;;;;;;;3.85;2.95;;;6.90;1.00;;;;;;5114120;28;20205;-65
2021/03/20 11:42:04;;;;;;;2.60;2.40;;;7.00;1.00;;;;;;5117390;28;20173;-68
2021/03/20 11:44:31;;;;;;;2.90;2.55;;;7.30;1.00;;;;;;5116541;28;20182;-67
2021/03/20 11:47:03;;;;;;;3.65;2.80;;;7.30;1.00;;;;;;5117755;28;20193;-69
2021/03/20 11:49:42;;;;;;;4.70;2.80;;;7.20;1.00;;;;;;5116570;28;20182;-66
2021/03/20 11:52:15;;;;;;;4.15;2.60;;;7.40;1.00;;;;;;5116244;28;20180;-67
2021/03/20 11:54:44;;;;;;;3.63;1.90;;;7.50;1.00;;;;;;5117250;28;20184;-68
2021/03/20 11:57:31;;;;;;;4.80;2.72;;;7.60;1.00;;;;;;5117078;28;20575;-64
2021/03/20 11:59:58;;;;;;;3.92;2.83;;;7.70;1.00;;;;;;5117431;28;20345;-65
2021/03/20 12:02:23;;;;;;;3.50;2.88;;;7.70;1.00;;;;;;5117577;27;20188;-64
2021/03/20 12:05:09;;;;;;;4.27;3.00;;;7.70;1.00;;;;;;5117666;27;20507;-66
2021/03/20 12:07:35;;;;;;;5.43;2.80;;;7.30;1.00;;;;;;5116506;27;20302;-66
2021/03/20 12:10:23;;;;;;;3.03;2.58;;;7.40;1.00;;;;;;5115886;28;20178;-65
2021/03/20 12:12:56;;;;;;;3.60;2.97;;;7.30;1.00;;;;;;5115676;28;20201;-66
2021/03/20 12:15:25;;;;;;;3.60;2.60;;;7.60;1.00;;;;;;5115645;28;20175;-67
2021/03/20 12:17:51;;;;;;;3.72;2.30;;;7.50;1.00;;;;;;5115303;28;20178;-66
2021/03/20 12:20:25;;;;;;;3.05;2.70;;;7.90;1.00;;;;;;5114859;28;20211;-65
2021/03/20 12:22:54;;;;;;;3.78;2.00;;;8.00;1.00;;;;;;5114853;28;20186;-66
2021/03/20 12:25:19;;;;;;;3.03;2.20;;;7.80;1.00;;;;;;5114839;28;20235;-67
2021/03/20 12:27:47;;;;;;;6.57;3.37;;;7.90;1.00;;;;;;5116007;28;20526;-66
2021/03/20 12:30:33;;;;;;;4.93;3.45;;;8.00;1.00;;;;;;5117465;28;20181;-68
2021/03/20 12:33:10;;;;;;;4.35;3.45;;;7.50;1.00;;;;;;5117713;28;20210;-67
2021/03/20 12:35:38;;;;;;;13.15;7.32;;;7.20;1.00;;;;;;5122589;27;20450;-65
2021/03/20 12:38:14;;;;;;;13.88;5.95;;;7.10;1.00;;;;;;5132282;27;20208;-65
2021/03/20 12:40:42;;;;;;;4.30;2.97;;;7.20;1.00;;;;;;5117723;27;20235;-68
2021/03/20 12:43:17;;;;;;;3.92;3.13;;;7.30;1.00;;;;;;5120983;27;20180;-62
2021/03/20 12:45:45;;;;;;;3.70;3.28;;;7.40;1.00;;;;;;5136932;27;20180;-65
2021/03/20 12:48:15;;;;;;;3.13;2.83;;;7.60;1.00;;;;;;5135636;27;20237;-63
2021/03/20 12:50:41;;;;;;;4.10;3.60;;;7.40;1.00;;;;;;5134662;27;20172;-64
2021/03/20 12:53:07;;;;;;;4.30;3.10;;;7.20;1.00;;;;;;5136464;27;20173;-64
2021/03/20 12:55:33;;;;;;;5.18;3.45;;;7.10;1.00;;;;;;5137243;27;20183;-64
2021/03/20 12:57:59;;;;;;;6.47;3.80;;;7.30;1.00;;;;;;5136310;27;20483;-63
2021/03/20 13:00:24;;;;;;;6.57;4.80;;;7.50;1.00;;;;;;5136688;27;20722;-64
2021/03/20 13:02:50;;;;;;;4.63;3.20;;;7.80;1.00;;;;;;5136380;27;20921;-63
2021/03/20 13:05:30;;;;;;;4.20;3.50;;;7.90;1.00;;;;;;5136243;27;20168;-63
2021/03/20 13:07:56;;;;;;;3.38;3.08;;;7.90;1.00;;;;;;5136239;27;20830;-63
2021/03/20 13:10:22;;;;;;;4.87;3.20;;;7.70;1.00;;;;;;5137073;27;20267;-64
2021/03/20 13:12:48;;;;;;;4.77;3.83;;;7.30;1.00;;;;;;5136801;27;20431;-63
2021/03/20 13:15:14;;;;;;;3.43;3.13;;;7.40;1.00;;;;;;5136003;27;20176;-63
2021/03/20 13:17:40;;;;;;;5.32;3.78;;;7.60;1.00;;;;;;5136273;27;20748;-63
2021/03/20 13:20:08;;;;;;;6.13;3.87;;;7.60;1.00;;;;;;5136287;27;20303;-63
2021/03/20 13:22:34;;;;;;;5.93;3.45;;;7.70;1.00;;;;;;5135261;27;20184;-64
2021/03/20 13:24:59;;;;;;;5.00;3.80;;;7.70;1.00;;;;;;5135697;27;20509;-63
2021/03/20 13:27:26;;;;;;;4.43;3.47;;;7.90;1.00;;;;;;5136039;27;20178;-64
2021/03/20 13:29:52;;;;;;;4.70;3.85;;;7.60;1.00;;;;;;5136582;27;20268;-64
2021/03/20 13:32:17;;;;;;;4.77;3.23;;;7.20;1.00;;;;;;5136561;27;20583;-64
2021/03/20 13:34:43;;;;;;;3.97;3.60;;;7.20;4.00;;;;;;5136165;27;20295;-63
2021/03/20 13:37:09;;;;;;;5.10;3.57;;;7.40;1.00;;;;;;5136073;27;20191;-63
2021/03/20 13:39:34;;;;;;;5.10;3.40;;;7.40;1.00;;;;;;5136200;27;20224;-63
2021/03/20 13:42:00;;;;;;;4.43;3.07;;;7.20;3.90;;;;;;5136443;27;20264;-63
2021/03/20 13:44:26;;;;;;;3.67;2.90;;;7.20;21.50;;;;;;5135915;27;20179;-64
2021/03/20 13:46:52;;;;;;;5.40;4.00;;;7.10;39.40;;;;;;5136159;27;20425;-63
2021/03/20 13:49:17;;;;;;;4.40;4.00;;;7.40;45.40;;;;;;5134187;27;20184;-68
2021/03/20 13:51:43;;;;;;;5.63;3.50;;;7.70;8.60;;;;;;5123967;27;20184;-67